Bookmark and Share
Track history (hours):
 

Lifter

Last reported at 2014-Apr-19 08:32 UTC. Time now 2014-Apr-20 16:07 UTC.
Position N 36°49' E 003°05'.

Length 118 m; draft 7.3 m.

Type: Ship. MMSI: 305175000.

NotesDate/timePositionNaut miles runAvg speedWind from/ knotsBaromVisibWave heightAir tempDewpointWater temp
2014-Apr-19 08:32N 36°49' E 003°05'0 0.0
2014-Apr-18 17:29N 36°49' E 003°05'0 0.0
2014-Apr-18 10:17N 36°49' E 003°05'0 0.0
2014-Apr-18 09:29N 36°49' E 003°05'0 0.0
2014-Apr-18 08:32N 36°49' E 003°05'0 0.0
2014-Apr-18 07:29N 36°49' E 003°05'0 0.0
2014-Apr-18 06:32N 36°49' E 003°05'0 0.0
2014-Apr-18 04:14N 36°49' E 003°05'0 0.0
2014-Apr-18 03:29N 36°49' E 003°05'0 0.0
2014-Apr-18 01:32N 36°49' E 003°05'0 0.0
2014-Apr-18 00:32N 36°49' E 003°05'0 0.0
2014-Apr-17 23:20N 36°49' E 003°05'0 0.0
2014-Apr-17 22:29N 36°49' E 003°05'0 0.0
2014-Apr-17 15:20N 36°49' E 003°05'19 9.5
2014-Apr-17 13:19N 36°52' E 002°41'1113.8
2014-Apr-17 12:34N 36°51' E 002°28'1913.5
2014-Apr-17 11:07N 36°49' E 002°04'712.8
2014-Apr-17 10:33N 36°48' E 001°55'1413.0
2014-Apr-17 09:28N 36°46' E 001°38'1313.6
2014-Apr-17 08:30N 36°44' E 001°22'1313.3
2014-Apr-17 07:33N 36°42' E 001°06'1313.0
2014-Apr-17 06:33N 36°40' E 000°50'1212.1
2014-Apr-17 05:32N 36°38' E 000°35'1312.3
2014-Apr-17 04:28N 36°36' E 000°19'3612.5
2014-Apr-17 01:33N 36°32' W 000°26'3912.9
2014-Apr-16 22:30N 36°26' W 001°15'1313.7
2014-Apr-16 21:32N 36°25' W 001°31'17012.9
2014-Apr-16 08:25N 35°60' W 004°59'1213.6
2014-Apr-16 07:34N 35°58' W 005°14'1514.9
2014-Apr-16 06:33N 35°56' W 005°32'1515.2
2014-Apr-16 05:33N 35°54' W 005°50'22011.0
2014-Apr-15 09:33N 37°43' W 009°49'2512.5
2014-Apr-15 07:32N 38°08' W 009°56'  
2014-Apr-12 11:23N 50°05' W 002°28'1314.9
2014-Apr-12 10:30N 50°09' W 002°08'1313.9
2014-Apr-12 09:33N 50°12' W 001°48'1312.7
2014-Apr-12 08:33N 50°16' W 001°29'1111.6
2014-Apr-12 07:34N 50°19' W 001°12'1010.5
2014-Apr-12 06:33N 50°22' W 000°56'1110.7
2014-Apr-12 05:34N 50°25' W 000°40'1211.5
2014-Apr-12 04:33N 50°29' W 000°23'1312.9
2014-Apr-12 03:33N 50°32' W 000°03'1414.0
2014-Apr-12 02:33N 50°36' E 000°18'1414.1
2014-Apr-12 01:33N 50°41' E 000°39'1413.6
2014-Apr-12 00:33N 50°49' E 000°57'1312.6
2014-Apr-11 23:33N 50°57' E 001°12'1211.5
2014-Apr-11 22:33N 51°04' E 001°26'1211.6
2014-Apr-11 21:34N 51°11' E 001°41'1212.2
2014-Apr-11 20:34N 51°20' E 001°54'1110.6
2014-Apr-11 19:33N 51°22' E 002°11'1313.3
2014-Apr-11 18:33N 51°23' E 002°32'1312.9
2014-Apr-11 17:33N 51°23' E 002°52'1414.0
2014-Apr-11 16:33N 51°25' E 003°15'1514.6
2014-Apr-11 15:33N 51°26' E 003°38'3 2.7
2014-Apr-11 14:32N 51°28' E 003°42'0 0.0
2014-Apr-11 13:32N 51°28' E 003°42'0 0.0
2014-Apr-11 12:32N 51°28' E 003°42'0 0.0
2014-Apr-11 11:32N 51°28' E 003°42'0 0.0
2014-Apr-11 10:32N 51°28' E 003°42'0 0.0
2014-Apr-11 09:32N 51°28' E 003°42'0 0.0
2014-Apr-11 08:32N 51°28' E 003°42'0 0.0
2014-Apr-11 07:32N 51°28' E 003°42'0 0.0
2014-Apr-11 06:32N 51°28' E 003°42'0 0.0
2014-Apr-11 05:34N 51°28' E 003°42'6 6.2
2014-Apr-11 04:33N 51°22' E 003°45'1110.7
2014-Apr-11 03:34N 51°24' E 004°02'1010.3
2014-Apr-11 02:34N 51°19' E 004°16'3 3.2
2014-Apr-11 01:34N 51°16' E 004°20'3 2.9
2014-Apr-11 00:34N 51°15' E 004°24'0 0.0
2014-Apr-10 23:33N 51°15' E 004°24'0 0.0
2014-Apr-10 22:33N 51°15' E 004°24'0 0.0
2014-Apr-10 21:33N 51°15' E 004°24'0 0.0
2014-Apr-10 20:33N 51°15' E 004°24'0 0.0
2014-Apr-10 19:33N 51°15' E 004°24'0 0.0
2014-Apr-10 18:33N 51°15' E 004°24'0 0.0
2014-Apr-10 17:33N 51°15' E 004°24'0 0.0
2014-Apr-10 16:33N 51°15' E 004°24'0 0.0
2014-Apr-10 15:33N 51°15' E 004°24'0 0.0
2014-Apr-10 14:33N 51°15' E 004°24'0 0.0
2014-Apr-10 13:33N 51°15' E 004°24'0 0.0
2014-Apr-10 12:33N 51°15' E 004°24'0 0.0
2014-Apr-10 11:33N 51°15' E 004°24'0 0.0
2014-Apr-10 10:33N 51°15' E 004°24'0 0.0
2014-Apr-10 09:33N 51°15' E 004°24'0 0.0
2014-Apr-10 08:33N 51°15' E 004°24'0 0.0
2014-Apr-10 07:33N 51°15' E 004°24'0 0.0
2014-Apr-10 06:33N 51°15' E 004°24'0 0.0
2014-Apr-10 05:33N 51°15' E 004°24'0 0.0
2014-Apr-10 04:33N 51°15' E 004°24'0 0.0
2014-Apr-10 03:33N 51°15' E 004°24'0 0.0
2014-Apr-10 02:33N 51°15' E 004°24'0 0.0
2014-Apr-10 01:33N 51°15' E 004°24'0 0.0
2014-Apr-10 00:33N 51°15' E 004°24'0 0.0
2014-Apr-09 23:33N 51°15' E 004°24'0 0.0
2014-Apr-09 22:33N 51°15' E 004°24'0 0.0
2014-Apr-09 21:33N 51°15' E 004°24'0 0.0
2014-Apr-09 20:33N 51°15' E 004°24'0 0.0
2014-Apr-09 19:33N 51°15' E 004°24'0 0.0
2014-Apr-09 18:33N 51°15' E 004°24'0 0.0
2014-Apr-09 17:33N 51°15' E 004°24'0 0.0
2014-Apr-09 16:33N 51°15' E 004°24'0 0.0
2014-Apr-09 15:33N 51°15' E 004°24'0 0.0
2014-Apr-09 14:33N 51°15' E 004°24'0 0.0
2014-Apr-09 13:33N 51°15' E 004°24'0 0.0
2014-Apr-09 12:33N 51°15' E 004°24'0 0.0
2014-Apr-09 11:33N 51°15' E 004°24'0 0.0
2014-Apr-09 10:33N 51°15' E 004°24'0 0.0
2014-Apr-09 09:33N 51°15' E 004°24'0 0.0
2014-Apr-09 08:33N 51°15' E 004°24'  

Dump ship's entire track history

sailing weather and tide predictions

Lifter — V2DD4 — position and weather